createdAt,value
2023-04-04T00:02:39.765Z,3.22
2023-04-04T00:05:43.152Z,3.50
2023-04-04T00:08:45.770Z,3.12
2023-04-04T00:11:49.077Z,2.87
2023-04-04T00:14:52.074Z,3.93
2023-04-04T00:20:57.639Z,5.40
2023-04-04T00:24:00.780Z,3.00
2023-04-04T00:27:03.634Z,4.60
2023-04-04T00:30:07.454Z,3.15
2023-04-04T00:33:10.098Z,3.75
2023-04-04T00:39:15.970Z,3.05
2023-04-04T00:42:19.192Z,3.03
2023-04-04T00:45:21.953Z,3.67
2023-04-04T00:48:25.344Z,2.97
2023-04-04T00:51:27.899Z,3.90
2023-04-04T00:54:31.205Z,3.17
2023-04-04T00:57:34.791Z,4.93
2023-04-04T01:00:38.424Z,5.15
2023-04-04T01:03:41.676Z,4.32
2023-04-04T01:06:45.938Z,4.05
2023-04-04T01:09:48.809Z,3.08
2023-04-04T01:12:52.252Z,3.95
2023-04-04T01:15:55.464Z,3.07
2023-04-04T01:18:58.712Z,3.37
2023-04-04T01:22:03.121Z,3.83
2023-04-04T01:25:08.099Z,2.70
2023-04-04T01:28:11.108Z,3.72
2023-04-04T01:31:18.905Z,3.35
2023-04-04T01:34:32.759Z,3.53
2023-04-04T01:37:38.002Z,4.87
2023-04-04T01:40:46.640Z,3.10
2023-04-04T01:43:50.274Z,2.92
2023-04-04T01:46:55.091Z,3.33
2023-04-04T01:49:58.498Z,2.97
2023-04-04T01:53:01.426Z,2.53
2023-04-04T01:56:04.920Z,3.25
2023-04-04T01:59:07.939Z,4.28
2023-04-04T02:02:11.397Z,4.60
2023-04-04T02:05:14.599Z,2.87
2023-04-04T02:08:17.444Z,4.78
2023-04-04T02:14:26.453Z,4.05
2023-04-04T02:17:29.734Z,4.85
2023-04-04T02:20:32.863Z,2.83
2023-04-04T02:23:35.881Z,3.10
2023-04-04T02:26:39.131Z,3.95
2023-04-04T02:29:42.192Z,3.87
2023-04-04T02:32:45.035Z,2.90
2023-04-04T02:35:48.341Z,4.50
2023-04-04T02:38:51.265Z,4.00
2023-04-04T02:41:55.575Z,3.30
2023-04-04T02:44:58.728Z,4.62
2023-04-04T02:48:01.642Z,3.33
2023-04-04T02:51:09.813Z,3.55
2023-04-04T02:54:13.105Z,2.97
2023-04-04T03:00:19.614Z,2.95
2023-04-04T03:06:27.783Z,2.50
2023-04-04T03:09:30.758Z,3.70
2023-04-04T03:12:33.589Z,4.68
2023-04-04T03:15:36.687Z,4.65
2023-04-04T03:18:39.705Z,4.55
2023-04-04T03:21:42.969Z,3.50
2023-04-04T03:24:46.095Z,4.70
2023-04-04T03:27:49.044Z,4.35
2023-04-04T03:30:53.893Z,5.78
2023-04-04T03:33:56.773Z,2.28
2023-04-04T03:36:59.754Z,5.35
2023-04-04T03:40:02.580Z,5.15
2023-04-04T03:43:08.850Z,4.93
2023-04-04T03:46:12.026Z,4.55
2023-04-04T03:52:19.299Z,3.03
2023-04-04T03:55:22.104Z,3.87
2023-04-04T03:58:24.946Z,4.62
2023-04-04T04:01:28.022Z,5.32
2023-04-04T04:04:31.170Z,4.05
2023-04-04T04:07:34.179Z,3.80
2023-04-04T04:10:37.374Z,3.92
2023-04-04T04:13:40.280Z,4.80
2023-04-04T04:16:43.777Z,4.37
2023-04-04T04:19:47.383Z,4.10
2023-04-04T04:22:53.285Z,3.17
2023-04-04T04:25:56.559Z,4.72
2023-04-04T04:29:00.825Z,5.18
2023-04-04T04:32:03.831Z,3.15
2023-04-04T04:35:08.889Z,3.42
2023-04-04T04:38:12.996Z,6.45
2023-04-04T04:41:17.151Z,3.10
2023-04-04T04:44:20.331Z,4.95
2023-04-04T04:50:27.289Z,4.00
2023-04-04T04:53:31.449Z,4.43
2023-04-04T04:56:35.065Z,5.57
2023-04-04T04:59:41.357Z,5.12
2023-04-04T05:02:44.627Z,4.80
2023-04-04T05:05:49.946Z,5.12
2023-04-04T05:11:57.220Z,4.07
2023-04-04T05:15:01.137Z,4.47
2023-04-04T05:18:04.811Z,5.50
2023-04-04T05:21:07.575Z,3.10
2023-04-04T05:24:10.682Z,5.35
2023-04-04T05:27:13.675Z,5.28
2023-04-04T05:30:17.801Z,4.97
2023-04-04T05:33:23.505Z,6.07
2023-04-04T05:36:28.081Z,6.30
2023-04-04T05:45:40.460Z,4.35
2023-04-04T05:48:44.898Z,3.67
2023-04-04T05:51:48.714Z,5.90
2023-04-04T05:54:52.119Z,5.78
2023-04-04T05:57:57.557Z,6.85
2023-04-04T06:01:07.143Z,12.25
2023-04-04T06:04:10.151Z,12.05
2023-04-04T06:07:13.474Z,5.55
2023-04-04T06:10:17.466Z,5.32
2023-04-04T06:13:21.574Z,4.55
2023-04-04T06:16:26.365Z,7.37
2023-04-04T06:19:29.368Z,9.77
2023-04-04T06:22:34.956Z,12.20
2023-04-04T06:25:38.614Z,7.00
2023-04-04T06:28:51.450Z,7.37
2023-04-04T06:31:55.006Z,4.80
2023-04-04T06:38:04.315Z,4.53
2023-04-04T06:41:08.217Z,3.85
2023-04-04T06:44:11.219Z,3.03
2023-04-04T06:47:14.633Z,5.20
2023-04-04T06:50:17.750Z,5.87
2023-04-04T06:53:23.828Z,5.22
2023-04-04T06:59:30.503Z,3.03
2023-04-04T07:02:33.957Z,4.53
2023-04-04T07:05:42.166Z,4.15
2023-04-04T07:08:45.042Z,4.93
2023-04-04T07:11:47.909Z,4.20
2023-04-04T07:14:50.729Z,3.35
2023-04-04T07:17:53.987Z,3.65
2023-04-04T07:24:02.283Z,5.25
2023-04-04T07:27:05.216Z,3.55
2023-04-04T07:30:08.900Z,5.90
2023-04-04T07:33:11.805Z,4.05
2023-04-04T07:36:14.849Z,4.85
2023-04-04T07:39:17.701Z,5.05
2023-04-04T07:42:23.361Z,3.90
2023-04-04T07:45:26.313Z,5.68
2023-04-04T07:48:29.171Z,3.70
2023-04-04T07:51:32.682Z,3.17
2023-04-04T07:54:35.644Z,4.62
2023-04-04T07:57:39.525Z,4.18
2023-04-04T08:00:42.461Z,3.40
2023-04-04T08:03:46.150Z,5.18
2023-04-04T08:06:49.142Z,3.85
2023-04-04T08:12:54.965Z,4.40
2023-04-04T08:15:58.325Z,3.17
2023-04-04T08:19:01.055Z,5.03
2023-04-04T08:22:05.417Z,4.15
2023-04-04T08:25:09.671Z,4.25
2023-04-04T08:28:13.874Z,6.85
2023-04-04T08:31:17.117Z,7.72
2023-04-04T08:34:21.090Z,2.90
2023-04-04T08:37:23.813Z,3.42
2023-04-04T08:43:35.389Z,2.90
2023-04-04T08:46:38.937Z,3.37
2023-04-04T08:49:44.311Z,3.20
2023-04-04T08:52:48.010Z,3.10
2023-04-04T08:55:51.564Z,2.70
2023-04-04T08:58:54.905Z,3.35
2023-04-04T09:02:05.644Z,4.32
2023-04-04T09:05:09.063Z,6.03
2023-04-04T09:08:13.395Z,5.00
2023-04-04T09:11:17.780Z,5.22
2023-04-04T09:14:22.734Z,4.75
2023-04-04T09:17:26.073Z,3.60
2023-04-04T09:20:42.401Z,3.00
2023-04-04T09:23:45.911Z,5.32
2023-04-04T09:26:54.414Z,4.97
2023-04-04T09:30:05.229Z,4.75
2023-04-04T09:33:10.582Z,3.55
2023-04-04T09:36:13.982Z,5.20
2023-04-04T09:39:17.150Z,2.97
2023-04-04T09:42:20.867Z,4.62
2023-04-04T09:45:32.231Z,3.35
2023-04-04T09:48:37.073Z,3.12
2023-04-04T09:51:41.717Z,3.67
2023-04-04T09:54:48.452Z,2.53
2023-04-04T09:57:51.465Z,4.85
2023-04-04T10:00:56.893Z,3.95
2023-04-04T10:03:59.952Z,3.30
2023-04-04T10:07:02.977Z,3.53
2023-04-04T10:10:07.799Z,3.97
2023-04-04T10:13:11.630Z,3.75
2023-04-04T10:16:15.377Z,4.15
2023-04-04T10:19:19.081Z,3.50
2023-04-04T10:22:23.681Z,3.87
2023-04-04T10:25:26.743Z,5.93
2023-04-04T10:28:30.122Z,5.03
2023-04-04T10:34:45.092Z,3.70
2023-04-04T10:37:58.527Z,3.55
2023-04-04T10:44:25.012Z,3.60
2023-04-04T10:47:29.751Z,3.12
2023-04-04T10:50:34.730Z,3.78
2023-04-04T10:53:39.989Z,6.90
2023-04-04T10:56:43.914Z,3.42
2023-04-04T10:59:59.947Z,3.35
2023-04-04T11:03:03.519Z,2.83
2023-04-04T11:09:53.883Z,3.22
2023-04-04T11:13:12.293Z,3.40
2023-04-04T11:16:19.300Z,3.70
2023-04-04T11:19:24.615Z,6.03
2023-04-04T11:22:27.573Z,6.07
2023-04-04T11:25:36.159Z,6.12
2023-04-04T11:28:42.161Z,4.62
2023-04-04T11:31:45.657Z,2.95
2023-04-04T11:34:50.483Z,2.83
2023-04-04T11:37:53.644Z,3.37
2023-04-04T11:44:09.272Z,7.93
2023-04-04T11:47:13.653Z,3.85
2023-04-04T11:50:17.007Z,3.33
2023-04-04T11:53:23.146Z,4.37
2023-04-04T11:56:26.277Z,3.00
2023-04-04T11:59:30.465Z,3.75
2023-04-04T12:02:35.181Z,2.83
2023-04-04T12:05:44.334Z,2.87
2023-04-04T12:08:48.182Z,5.30
2023-04-04T12:11:51.920Z,5.05
2023-04-04T12:15:06.209Z,2.97
2023-04-04T12:18:22.118Z,3.28
2023-04-04T12:21:25.651Z,3.90
2023-04-04T12:24:28.879Z,3.95
2023-04-04T12:27:33.453Z,4.03
2023-04-04T12:30:38.468Z,4.32
2023-04-04T12:33:42.222Z,4.10
2023-04-04T12:36:49.179Z,3.10
2023-04-04T12:39:52.415Z,2.90
2023-04-04T12:42:55.535Z,4.72
2023-04-04T12:45:58.356Z,2.70
2023-04-04T12:49:01.643Z,3.35
2023-04-04T12:52:05.443Z,2.90
2023-04-04T12:55:10.088Z,2.90
2023-04-04T12:58:12.982Z,3.40
2023-04-04T13:01:19.416Z,5.18
2023-04-04T13:04:24.437Z,3.85
2023-04-04T13:07:32.688Z,3.42
2023-04-04T13:11:03.665Z,5.65
2023-04-04T13:14:06.849Z,3.22
2023-04-04T13:17:09.660Z,2.42
2023-04-04T13:20:14.528Z,2.58
2023-04-04T13:23:17.855Z,3.72
2023-04-04T13:26:21.793Z,3.10
2023-04-04T13:29:25.438Z,2.92
2023-04-04T13:32:29.892Z,4.00
2023-04-04T13:35:32.866Z,3.30
2023-04-04T13:38:36.358Z,3.47
2023-04-04T13:41:38.895Z,4.68
2023-04-04T13:44:42.131Z,3.30
2023-04-04T13:47:47.821Z,5.18
2023-04-04T13:50:52.931Z,2.90
2023-04-04T13:53:57.208Z,3.80
2023-04-04T13:57:05.671Z,3.53
2023-04-04T14:00:26.869Z,4.70
2023-04-04T14:03:31.175Z,3.83
2023-04-04T14:06:34.136Z,4.82
2023-04-04T14:12:40.704Z,3.60
2023-04-04T14:15:44.678Z,5.68
2023-04-04T14:18:49.144Z,3.35
2023-04-04T14:21:52.988Z,3.00
2023-04-04T14:24:55.950Z,2.70
2023-04-04T14:27:59.134Z,2.90
2023-04-04T14:31:01.960Z,5.47
2023-04-04T14:34:05.810Z,3.20
2023-04-04T14:37:08.713Z,3.75
2023-04-04T14:43:16.051Z,3.50
2023-04-04T14:46:19.871Z,3.15
2023-04-04T14:49:28.086Z,3.40
2023-04-04T14:52:34.549Z,4.10
2023-04-04T14:55:39.888Z,3.25
2023-04-04T14:58:43.375Z,4.68
2023-04-04T15:01:46.343Z,3.80
2023-04-04T15:04:49.705Z,3.28
2023-04-04T15:07:52.314Z,3.10
2023-04-04T15:10:56.239Z,3.28
2023-04-04T15:13:58.798Z,4.40
2023-04-04T15:20:04.896Z,4.12
2023-04-04T15:23:08.198Z,4.10
2023-04-04T15:26:10.720Z,6.93
2023-04-04T15:29:15.669Z,8.98
2023-04-04T15:32:18.432Z,5.43
2023-04-04T15:38:24.005Z,3.78
2023-04-04T15:41:27.524Z,3.92
2023-04-04T15:44:30.331Z,4.22
2023-04-04T15:50:36.063Z,4.70
2023-04-04T15:56:41.792Z,4.82
2023-04-04T16:02:49.493Z,3.90
2023-04-04T16:08:55.627Z,3.78
2023-04-04T16:11:59.232Z,5.00
2023-04-04T16:15:01.964Z,3.35
2023-04-04T16:18:05.606Z,4.50
2023-04-04T16:21:11.073Z,3.47
2023-04-04T16:24:15.133Z,3.33
2023-04-04T16:30:21.181Z,4.80
2023-04-04T16:33:24.191Z,7.75
2023-04-04T16:36:27.612Z,6.60
2023-04-04T16:39:30.448Z,4.30
2023-04-04T16:45:36.096Z,5.85
2023-04-04T16:48:39.184Z,6.47
2023-04-04T16:51:41.818Z,8.30
2023-04-04T16:54:44.960Z,4.22
2023-04-04T16:57:47.901Z,5.90
2023-04-04T17:00:51.106Z,4.15
2023-04-04T17:03:53.742Z,5.63
2023-04-04T17:06:56.995Z,6.28
2023-04-04T17:09:59.576Z,6.37
2023-04-04T17:13:02.903Z,6.35
2023-04-04T17:16:23.973Z,5.30
2023-04-04T17:19:29.908Z,4.43
2023-04-04T17:22:32.549Z,6.05
2023-04-04T17:25:35.645Z,4.80
2023-04-04T17:28:38.761Z,5.03
2023-04-04T17:31:43.509Z,4.62
2023-04-04T17:34:46.255Z,5.40
2023-04-04T17:37:49.591Z,15.60
2023-04-04T17:40:53.149Z,14.00
2023-04-04T17:43:56.309Z,8.02
2023-04-04T17:47:01.965Z,12.48
2023-04-04T17:50:05.697Z,7.47
2023-04-04T17:53:08.488Z,5.78
2023-04-04T17:59:15.818Z,4.75
2023-04-04T18:02:19.039Z,7.50
2023-04-04T18:05:22.916Z,5.30
2023-04-04T18:08:25.745Z,5.97
2023-04-04T18:11:28.676Z,5.43
2023-04-04T18:14:31.714Z,5.47
2023-04-04T18:17:37.767Z,6.62
2023-04-04T18:20:41.146Z,7.68
2023-04-04T18:23:44.154Z,5.72
2023-04-04T18:26:47.052Z,6.43
2023-04-04T18:29:49.930Z,9.30
2023-04-04T18:32:53.240Z,7.55
2023-04-04T18:35:56.286Z,8.63
2023-04-04T18:39:01.128Z,6.40
2023-04-04T18:42:04.301Z,7.32
2023-04-04T18:45:08.213Z,6.47
2023-04-04T18:48:12.800Z,9.90
2023-04-04T18:51:15.763Z,8.23
2023-04-04T18:54:18.678Z,8.73
2023-04-04T18:57:21.630Z,6.75
2023-04-04T19:00:24.976Z,5.47
2023-04-04T19:03:28.018Z,4.40
2023-04-04T19:06:32.155Z,7.35
2023-04-04T19:09:36.606Z,6.00
2023-04-04T19:12:39.442Z,5.90
2023-04-04T19:15:43.440Z,7.80
2023-04-04T19:18:46.425Z,5.45
2023-04-04T19:21:49.390Z,6.20
2023-04-04T19:24:52.397Z,5.87
2023-04-04T19:27:55.524Z,5.43
2023-04-04T19:30:58.502Z,7.50
2023-04-04T19:34:07.548Z,6.47
2023-04-04T19:37:12.456Z,6.03
2023-04-04T19:40:16.455Z,4.22
2023-04-04T19:43:21.960Z,6.45
2023-04-04T19:46:27.055Z,4.90
2023-04-04T19:49:33.394Z,5.68
2023-04-04T19:52:36.805Z,7.18
2023-04-04T19:55:40.467Z,5.93
2023-04-04T19:58:44.385Z,6.28
2023-04-04T20:04:54.286Z,7.07
2023-04-04T20:07:56.913Z,6.37
2023-04-04T20:11:00.426Z,4.60
2023-04-04T20:14:06.773Z,8.70
2023-04-04T20:17:09.945Z,6.15
2023-04-04T20:20:52.987Z,5.27
2023-04-04T20:24:03.344Z,5.43
2023-04-04T20:27:06.033Z,6.10
2023-04-04T20:30:11.692Z,5.10
2023-04-04T20:33:32.343Z,6.43
2023-04-04T20:36:40.880Z,4.35
2023-04-04T20:39:53.670Z,5.85
2023-04-04T20:42:56.771Z,7.20
2023-04-04T20:45:59.500Z,6.53
2023-04-04T20:49:04.672Z,7.18
2023-04-04T20:52:07.578Z,4.95
2023-04-04T20:58:33.478Z,6.30
2023-04-04T21:01:36.731Z,5.80
2023-04-04T21:04:41.627Z,5.47
2023-04-04T21:07:49.019Z,5.12
2023-04-04T21:10:53.484Z,4.57
2023-04-04T21:13:57.067Z,5.70
2023-04-04T21:16:59.830Z,8.38
2023-04-04T21:20:16.112Z,10.02
2023-04-04T21:23:24.947Z,4.70
2023-04-04T21:26:35.363Z,7.68
2023-04-04T21:29:38.022Z,9.00
2023-04-04T21:32:41.236Z,7.00
2023-04-04T21:35:49.142Z,6.83
2023-04-04T21:39:00.412Z,7.70
2023-04-04T21:42:07.835Z,5.53
2023-04-04T21:45:11.912Z,6.90
2023-04-04T21:48:14.645Z,4.28
2023-04-04T21:51:17.969Z,5.68
2023-04-04T21:54:20.592Z,4.85
2023-04-04T21:57:23.814Z,6.20
2023-04-04T22:00:27.806Z,7.97
2023-04-04T22:03:31.033Z,5.32
2023-04-04T22:06:33.553Z,6.57
2023-04-04T22:09:40.501Z,8.38
2023-04-04T22:12:45.839Z,7.40
2023-04-04T22:15:49.955Z,6.12
2023-04-04T22:18:53.518Z,7.43
2023-04-04T22:21:58.755Z,7.37
2023-04-04T22:25:12.982Z,7.87
2023-04-04T22:28:18.123Z,8.23
2023-04-04T22:31:21.024Z,4.93
2023-04-04T22:34:24.196Z,8.27
2023-04-04T22:37:27.428Z,7.40
2023-04-04T22:40:31.972Z,7.55
2023-04-04T22:43:34.668Z,7.20
2023-04-04T22:46:37.819Z,7.05
2023-04-04T22:49:48.432Z,5.60
2023-04-04T22:52:54.820Z,5.65
2023-04-04T22:56:00.862Z,5.30
2023-04-04T22:59:04.049Z,7.93
2023-04-04T23:02:06.694Z,5.93
2023-04-04T23:05:11.518Z,7.15
2023-04-04T23:08:14.158Z,7.97
2023-04-04T23:11:17.280Z,5.93
2023-04-04T23:14:22.905Z,6.57
2023-04-04T23:17:26.074Z,6.10
2023-04-04T23:20:31.118Z,5.45
2023-04-04T23:23:34.259Z,6.25
2023-04-04T23:26:36.855Z,5.30
2023-04-04T23:29:41.318Z,5.60
2023-04-04T23:32:44.099Z,5.87
2023-04-04T23:35:47.418Z,5.93
2023-04-04T23:38:50.362Z,5.53
2023-04-04T23:41:54.010Z,8.63
2023-04-04T23:48:02.384Z,10.75
2023-04-04T23:51:05.700Z,5.87
2023-04-04T23:54:10.887Z,5.25
2023-04-04T23:57:13.833Z,5.90
